Terminal Aerodrome Forecast
Issued by NWS Dodge City, KS

Home | Current Version | Previous Version | Graphics & Text | Print | Product List | Glossary Off
Versions: 1 2 3 4 5 6 7 8 9 10 11 12 13 14 15 16 17 18 19 20 21 22 23 24 25 26 27 28 29

000
FTUS43 KDDC 192320
TAFDDC
TAF
KDDC 192320Z 2000/2024 16015G25KT P6SM BKN250
     FM200600 17015G25KT P6SM BKN200 WS020/19045KT
     FM201500 18027G37KT P6SM SCT060 BKN200
     FM201800 18029G39KT P6SM SCT060=

USA.gov is the U.S. government's official web portal to all federal, state and local government web resources and services.